sensor_id;sensor_type;location;lat;lon;timestamp;pressure;altitude;pressure_sealevel;temperature;humidity
50430;BME280;36359;41.556;-8.418;2023-04-29T00:02:18;100273.03;;;18.43;94.67
50430;BME280;36359;41.556;-8.418;2023-04-29T00:04:43;100276.94;;;18.61;93.41
50430;BME280;36359;41.556;-8.418;2023-04-29T00:07:09;100279.94;;;18.67;93.15
50430;BME280;36359;41.556;-8.418;2023-04-29T00:09:39;100276.25;;;18.53;94.23
50430;BME280;36359;41.556;-8.418;2023-04-29T00:12:05;100275.13;;;18.41;94.99
50430;BME280;36359;41.556;-8.418;2023-04-29T00:14:31;100277.00;;;18.33;94.81
50430;BME280;36359;41.556;-8.418;2023-04-29T00:16:56;100280.69;;;18.47;93.88
50430;BME280;36359;41.556;-8.418;2023-04-29T00:19:41;100279.41;;;18.50;93.24
50430;BME280;36359;41.556;-8.418;2023-04-29T00:22:26;100283.81;;;18.44;93.21
50430;BME280;36359;41.556;-8.418;2023-04-29T00:24:52;100285.72;;;18.44;93.47
50430;BME280;36359;41.556;-8.418;2023-04-29T00:27:18;100290.00;;;18.53;92.74
50430;BME280;36359;41.556;-8.418;2023-04-29T00:29:44;100285.38;;;18.53;92.76
50430;BME280;36359;41.556;-8.418;2023-04-29T00:32:09;100285.81;;;18.22;95.04
50430;BME280;36359;41.556;-8.418;2023-04-29T00:34:35;100288.06;;;18.12;95.89
50430;BME280;36359;41.556;-8.418;2023-04-29T00:37:01;100281.91;;;18.10;96.19
50430;BME280;36359;41.556;-8.418;2023-04-29T00:39:26;100284.03;;;18.14;96.30
50430;BME280;36359;41.556;-8.418;2023-04-29T00:41:52;100292.25;;;18.08;96.31
50430;BME280;36359;41.556;-8.418;2023-04-29T00:44:19;100282.06;;;18.02;96.85
50430;BME280;36359;41.556;-8.418;2023-04-29T00:46:45;100284.84;;;18.08;96.82
50430;BME280;36359;41.556;-8.418;2023-04-29T00:49:12;100284.00;;;18.08;96.11
50430;BME280;36359;41.556;-8.418;2023-04-29T00:51:39;100293.56;;;18.12;96.81
50430;BME280;36359;41.556;-8.418;2023-04-29T00:56:36;100294.44;;;18.19;96.11
50430;BME280;36359;41.556;-8.418;2023-04-29T00:59:03;100287.56;;;18.30;95.53
50430;BME280;36359;41.556;-8.418;2023-04-29T01:01:30;100287.69;;;18.22;95.93
50430;BME280;36359;41.556;-8.418;2023-04-29T01:03:56;100290.63;;;18.20;96.38
50430;BME280;36359;41.556;-8.418;2023-04-29T01:09:20;100273.69;;;18.10;97.60
50430;BME280;36359;41.556;-8.418;2023-04-29T01:12:07;100276.78;;;18.00;98.25
50430;BME280;36359;41.556;-8.418;2023-04-29T01:14:38;100282.06;;;18.02;97.92
50430;BME280;36359;41.556;-8.418;2023-04-29T01:20:09;100273.41;;;17.77;100.00
50430;BME280;36359;41.556;-8.418;2023-04-29T01:22:35;100270.75;;;17.62;100.00
50430;BME280;36359;41.556;-8.418;2023-04-29T01:25:05;100268.97;;;17.54;100.00
50430;BME280;36359;41.556;-8.418;2023-04-29T01:27:45;100273.78;;;17.52;100.00
50430;BME280;36359;41.556;-8.418;2023-04-29T01:33:28;100269.81;;;17.55;99.28
50430;BME280;36359;41.556;-8.418;2023-04-29T01:36:15;100276.25;;;17.47;100.00
50430;BME280;36359;41.556;-8.418;2023-04-29T01:39:14;100276.41;;;17.39;100.00
50430;BME280;36359;41.556;-8.418;2023-04-29T01:41:56;100276.53;;;17.52;100.00
50430;BME280;36359;41.556;-8.418;2023-04-29T01:44:28;100271.38;;;17.42;100.00
50430;BME280;36359;41.556;-8.418;2023-04-29T01:46:57;100278.88;;;17.55;100.00
50430;BME280;36359;41.556;-8.418;2023-04-29T01:49:34;100271.19;;;17.87;100.00
50430;BME280;36359;41.556;-8.418;2023-04-29T01:52:00;100281.31;;;17.86;100.00
50430;BME280;36359;41.556;-8.418;2023-04-29T01:54:27;100275.16;;;17.84;100.00
50430;BME280;36359;41.556;-8.418;2023-04-29T01:56:53;100267.00;;;17.69;100.00
50430;BME280;36359;41.556;-8.418;2023-04-29T01:59:45;100255.03;;;17.77;100.00
50430;BME280;36359;41.556;-8.418;2023-04-29T02:02:37;100251.97;;;17.65;100.00
50430;BME280;36359;41.556;-8.418;2023-04-29T02:05:13;100255.34;;;17.67;99.87
50430;BME280;36359;41.556;-8.418;2023-04-29T02:07:44;100248.72;;;17.55;100.00
50430;BME280;36359;41.556;-8.418;2023-04-29T02:10:10;100252.56;;;17.61;100.00
50430;BME280;36359;41.556;-8.418;2023-04-29T02:12:39;100272.44;;;17.63;100.00
50430;BME280;36359;41.556;-8.418;2023-04-29T02:15:06;100265.47;;;17.67;100.00
50430;BME280;36359;41.556;-8.418;2023-04-29T02:17:33;100275.81;;;17.86;100.00
50430;BME280;36359;41.556;-8.418;2023-04-29T02:19:59;100282.41;;;17.92;99.46
50430;BME280;36359;41.556;-8.418;2023-04-29T02:22:24;100288.00;;;18.05;98.89
50430;BME280;36359;41.556;-8.418;2023-04-29T02:24:54;100284.00;;;18.08;99.08
50430;BME280;36359;41.556;-8.418;2023-04-29T02:27:19;100284.72;;;17.88;100.00
50430;BME280;36359;41.556;-8.418;2023-04-29T02:29:45;100284.19;;;17.78;100.00
50430;BME280;36359;41.556;-8.418;2023-04-29T02:32:11;100286.00;;;17.71;100.00
50430;BME280;36359;41.556;-8.418;2023-04-29T02:34:39;100287.84;;;17.42;100.00
50430;BME280;36359;41.556;-8.418;2023-04-29T02:37:05;100283.41;;;17.63;100.00
50430;BME280;36359;41.556;-8.418;2023-04-29T02:39:31;100286.41;;;17.68;100.00
50430;BME280;36359;41.556;-8.418;2023-04-29T02:41:56;100285.13;;;17.70;100.00
50430;BME280;36359;41.556;-8.418;2023-04-29T02:44:23;100289.22;;;17.53;100.00
50430;BME280;36359;41.556;-8.418;2023-04-29T02:46:48;100292.53;;;17.48;100.00
50430;BME280;36359;41.556;-8.418;2023-04-29T02:49:14;100295.78;;;17.59;100.00
50430;BME280;36359;41.556;-8.418;2023-04-29T02:51:40;100302.28;;;17.51;100.00
50430;BME280;36359;41.556;-8.418;2023-04-29T02:54:07;100307.16;;;17.56;100.00
50430;BME280;36359;41.556;-8.418;2023-04-29T02:56:32;100303.91;;;17.67;100.00
50430;BME280;36359;41.556;-8.418;2023-04-29T02:58:58;100304.56;;;17.69;100.00
50430;BME280;36359;41.556;-8.418;2023-04-29T03:01:24;100312.22;;;17.74;100.00
50430;BME280;36359;41.556;-8.418;2023-04-29T03:03:50;100312.22;;;17.74;100.00
50430;BME280;36359;41.556;-8.418;2023-04-29T03:06:16;100316.78;;;17.88;100.00
50430;BME280;36359;41.556;-8.418;2023-04-29T03:08:42;100318.69;;;17.87;100.00
50430;BME280;36359;41.556;-8.418;2023-04-29T03:11:07;100326.78;;;17.96;100.00
50430;BME280;36359;41.556;-8.418;2023-04-29T03:13:34;100325.72;;;17.75;100.00
50430;BME280;36359;41.556;-8.418;2023-04-29T03:16:00;100327.91;;;17.80;100.00
50430;BME280;36359;41.556;-8.418;2023-04-29T03:18:26;100330.94;;;17.70;100.00
50430;BME280;36359;41.556;-8.418;2023-04-29T03:20:53;100325.28;;;17.71;100.00
50430;BME280;36359;41.556;-8.418;2023-04-29T03:23:18;100329.13;;;17.77;100.00
50430;BME280;36359;41.556;-8.418;2023-04-29T03:25:44;100329.38;;;17.61;100.00
50430;BME280;36359;41.556;-8.418;2023-04-29T03:28:09;100325.63;;;17.47;100.00
50430;BME280;36359;41.556;-8.418;2023-04-29T03:30:36;100336.19;;;17.65;100.00
50430;BME280;36359;41.556;-8.418;2023-04-29T03:33:02;100336.94;;;17.59;100.00
50430;BME280;36359;41.556;-8.418;2023-04-29T03:35:29;100347.78;;;17.45;100.00
50430;BME280;36359;41.556;-8.418;2023-04-29T03:38:13;100339.34;;;17.25;100.00
50430;BME280;36359;41.556;-8.418;2023-04-29T03:40:39;100348.59;;;17.61;100.00
50430;BME280;36359;41.556;-8.418;2023-04-29T03:43:04;100340.78;;;18.01;100.00
50430;BME280;36359;41.556;-8.418;2023-04-29T03:45:33;100340.94;;;17.99;100.00
50430;BME280;36359;41.556;-8.418;2023-04-29T03:47:59;100345.59;;;17.77;100.00
50430;BME280;36359;41.556;-8.418;2023-04-29T03:50:25;100346.28;;;17.64;100.00
50430;BME280;36359;41.556;-8.418;2023-04-29T03:52:51;100348.06;;;17.72;100.00
50430;BME280;36359;41.556;-8.418;2023-04-29T03:55:22;100340.50;;;17.74;100.00
50430;BME280;36359;41.556;-8.418;2023-04-29T03:57:48;100337.47;;;17.69;100.00
50430;BME280;36359;41.556;-8.418;2023-04-29T04:00:15;100341.75;;;17.35;100.00
50430;BME280;36359;41.556;-8.418;2023-04-29T04:02:44;100341.56;;;17.37;100.00
50430;BME280;36359;41.556;-8.418;2023-04-29T04:05:11;100335.91;;;17.38;100.00
50430;BME280;36359;41.556;-8.418;2023-04-29T04:07:40;100336.47;;;17.34;100.00
50430;BME280;36359;41.556;-8.418;2023-04-29T04:10:25;100344.63;;;17.27;100.00
50430;BME280;36359;41.556;-8.418;2023-04-29T04:12:51;100343.97;;;17.25;100.00
50430;BME280;36359;41.556;-8.418;2023-04-29T04:15:17;100339.84;;;16.99;100.00
50430;BME280;36359;41.556;-8.418;2023-04-29T04:17:42;100339.28;;;17.04;100.00
50430;BME280;36359;41.556;-8.418;2023-04-29T04:20:09;100340.59;;;17.08;100.00
50430;BME280;36359;41.556;-8.418;2023-04-29T04:22:35;100339.41;;;16.81;100.00
50430;BME280;36359;41.556;-8.418;2023-04-29T04:28:00;100338.00;;;17.36;100.00
50430;BME280;36359;41.556;-8.418;2023-04-29T04:30:41;100347.84;;;17.31;100.00
50430;BME280;36359;41.556;-8.418;2023-04-29T04:33:07;100340.22;;;17.47;100.00
50430;BME280;36359;41.556;-8.418;2023-04-29T04:35:36;100350.63;;;17.74;100.00
50430;BME280;36359;41.556;-8.418;2023-04-29T04:38:02;100350.31;;;17.47;100.00
50430;BME280;36359;41.556;-8.418;2023-04-29T04:40:28;100351.06;;;17.56;100.00
50430;BME280;36359;41.556;-8.418;2023-04-29T04:43:09;100353.09;;;17.68;100.00
50430;BME280;36359;41.556;-8.418;2023-04-29T04:45:39;100345.59;;;17.77;100.00
50430;BME280;36359;41.556;-8.418;2023-04-29T04:48:05;100344.88;;;17.68;100.00
50430;BME280;36359;41.556;-8.418;2023-04-29T04:50:33;100346.94;;;17.45;100.00
50430;BME280;36359;41.556;-8.418;2023-04-29T04:52:59;100347.06;;;17.37;100.00
50430;BME280;36359;41.556;-8.418;2023-04-29T04:56:01;100347.88;;;17.16;100.00
50430;BME280;36359;41.556;-8.418;2023-04-29T04:58:28;100348.72;;;17.16;100.00
50430;BME280;36359;41.556;-8.418;2023-04-29T05:00:56;100352.69;;;17.14;100.00
50430;BME280;36359;41.556;-8.418;2023-04-29T05:03:21;100358.88;;;17.37;100.00
50430;BME280;36359;41.556;-8.418;2023-04-29T05:05:55;100356.03;;;17.45;100.00
50430;BME280;36359;41.556;-8.418;2023-04-29T05:08:22;100362.94;;;17.41;100.00
50430;BME280;36359;41.556;-8.418;2023-04-29T05:10:48;100364.78;;;17.19;100.00
50430;BME280;36359;41.556;-8.418;2023-04-29T05:13:14;100362.28;;;17.03;100.00
50430;BME280;36359;41.556;-8.418;2023-04-29T05:15:41;100372.50;;;16.79;100.00
50430;BME280;36359;41.556;-8.418;2023-04-29T05:18:09;100372.88;;;16.91;100.00
50430;BME280;36359;41.556;-8.418;2023-04-29T05:20:35;100376.47;;;16.77;100.00
50430;BME280;36359;41.556;-8.418;2023-04-29T05:23:02;100376.31;;;16.70;100.00
50430;BME280;36359;41.556;-8.418;2023-04-29T05:25:34;100384.16;;;16.58;100.00
50430;BME280;36359;41.556;-8.418;2023-04-29T05:28:01;100381.78;;;16.70;100.00
50430;BME280;36359;41.556;-8.418;2023-04-29T05:30:30;100386.38;;;16.78;100.00
50430;BME280;36359;41.556;-8.418;2023-04-29T05:32:56;100379.81;;;17.09;100.00
50430;BME280;36359;41.556;-8.418;2023-04-29T05:35:21;100394.69;;;16.99;100.00
50430;BME280;36359;41.556;-8.418;2023-04-29T05:37:47;100407.25;;;16.79;100.00
50430;BME280;36359;41.556;-8.418;2023-04-29T05:40:31;100408.75;;;16.96;100.00
50430;BME280;36359;41.556;-8.418;2023-04-29T05:43:16;100411.03;;;16.93;100.00
50430;BME280;36359;41.556;-8.418;2023-04-29T05:45:45;100417.28;;;17.01;100.00
50430;BME280;36359;41.556;-8.418;2023-04-29T05:48:11;100423.44;;;17.03;100.00
50430;BME280;36359;41.556;-8.418;2023-04-29T05:50:36;100421.22;;;17.14;100.00
50430;BME280;36359;41.556;-8.418;2023-04-29T05:53:02;100430.50;;;16.98;100.00
50430;BME280;36359;41.556;-8.418;2023-04-29T05:55:29;100433.72;;;17.01;100.00
50430;BME280;36359;41.556;-8.418;2023-04-29T05:57:55;100425.38;;;17.39;100.00
50430;BME280;36359;41.556;-8.418;2023-04-29T06:00:21;100424.91;;;17.72;100.00
50430;BME280;36359;41.556;-8.418;2023-04-29T06:02:49;100429.16;;;17.75;100.00
50430;BME280;36359;41.556;-8.418;2023-04-29T06:05:15;100433.50;;;17.84;100.00
50430;BME280;36359;41.556;-8.418;2023-04-29T06:08:00;100440.50;;;17.86;100.00
50430;BME280;36359;41.556;-8.418;2023-04-29T06:10:46;100442.97;;;17.66;100.00
50430;BME280;36359;41.556;-8.418;2023-04-29T06:13:12;100448.53;;;17.73;100.00
50430;BME280;36359;41.556;-8.418;2023-04-29T06:15:38;100449.06;;;17.62;100.00
50430;BME280;36359;41.556;-8.418;2023-04-29T06:18:04;100455.97;;;17.58;100.00
50430;BME280;36359;41.556;-8.418;2023-04-29T06:20:30;100453.00;;;17.74;100.00
50430;BME280;36359;41.556;-8.418;2023-04-29T06:22:55;100453.44;;;17.92;100.00
50430;BME280;36359;41.556;-8.418;2023-04-29T06:25:21;100449.91;;;17.99;100.00
50430;BME280;36359;41.556;-8.418;2023-04-29T06:27:49;100458.38;;;17.97;100.00
50430;BME280;36359;41.556;-8.418;2023-04-29T06:30:17;100457.25;;;17.91;100.00
50430;BME280;36359;41.556;-8.418;2023-04-29T06:32:43;100441.38;;;17.72;100.00
50430;BME280;36359;41.556;-8.418;2023-04-29T06:35:09;100446.84;;;17.72;100.00
50430;BME280;36359;41.556;-8.418;2023-04-29T06:37:46;100444.59;;;17.61;100.00
50430;BME280;36359;41.556;-8.418;2023-04-29T06:40:33;100440.94;;;17.54;100.00
50430;BME280;36359;41.556;-8.418;2023-04-29T06:43:19;100454.03;;;17.73;100.00
50430;BME280;36359;41.556;-8.418;2023-04-29T06:45:45;100443.31;;;17.93;100.00
50430;BME280;36359;41.556;-8.418;2023-04-29T06:48:40;100454.13;;;17.95;100.00
50430;BME280;36359;41.556;-8.418;2023-04-29T06:51:06;100450.63;;;18.07;100.00
50430;BME280;36359;41.556;-8.418;2023-04-29T06:53:35;100448.47;;;18.03;100.00
50430;BME280;36359;41.556;-8.418;2023-04-29T06:56:01;100435.91;;;17.93;100.00
50430;BME280;36359;41.556;-8.418;2023-04-29T06:58:26;100436.31;;;17.90;100.00
50430;BME280;36359;41.556;-8.418;2023-04-29T07:00:52;100428.84;;;17.84;100.00
50430;BME280;36359;41.556;-8.418;2023-04-29T07:03:20;100431.66;;;17.91;100.00
50430;BME280;36359;41.556;-8.418;2023-04-29T07:05:46;100427.69;;;17.93;100.00
50430;BME280;36359;41.556;-8.418;2023-04-29T07:08:13;100439.59;;;18.01;100.00
50430;BME280;36359;41.556;-8.418;2023-04-29T07:10:53;100431.53;;;17.99;100.00
50430;BME280;36359;41.556;-8.418;2023-04-29T07:13:22;100441.16;;;17.88;100.00
50430;BME280;36359;41.556;-8.418;2023-04-29T07:15:49;100427.44;;;17.88;100.00
50430;BME280;36359;41.556;-8.418;2023-04-29T07:18:15;100431.09;;;17.96;100.00
50430;BME280;36359;41.556;-8.418;2023-04-29T07:20:41;100437.09;;;17.84;100.00
50430;BME280;36359;41.556;-8.418;2023-04-29T07:23:26;100438.91;;;17.77;100.00
50430;BME280;36359;41.556;-8.418;2023-04-29T07:25:52;100443.53;;;18.13;100.00
50430;BME280;36359;41.556;-8.418;2023-04-29T07:28:19;100444.09;;;18.30;100.00
50430;BME280;36359;41.556;-8.418;2023-04-29T07:31:03;100442.53;;;17.99;100.00
50430;BME280;36359;41.556;-8.418;2023-04-29T07:33:29;100440.13;;;18.32;100.00
50430;BME280;36359;41.556;-8.418;2023-04-29T07:35:55;100433.91;;;18.52;100.00
50430;BME280;36359;41.556;-8.418;2023-04-29T07:38:21;100444.41;;;18.70;100.00
50430;BME280;36359;41.556;-8.418;2023-04-29T07:40:47;100439.66;;;18.78;99.82
50430;BME280;36359;41.556;-8.418;2023-04-29T07:43:12;100440.69;;;18.56;100.00
50430;BME280;36359;41.556;-8.418;2023-04-29T07:45:38;100443.63;;;18.48;100.00
50430;BME280;36359;41.556;-8.418;2023-04-29T07:48:05;100454.41;;;18.49;100.00
50430;BME280;36359;41.556;-8.418;2023-04-29T07:50:33;100461.78;;;18.49;100.00
50430;BME280;36359;41.556;-8.418;2023-04-29T07:52:59;100465.63;;;18.76;98.88
50430;BME280;36359;41.556;-8.418;2023-04-29T07:55:26;100468.59;;;18.31;100.00
50430;BME280;36359;41.556;-8.418;2023-04-29T07:57:55;100473.84;;;18.48;100.00
50430;BME280;36359;41.556;-8.418;2023-04-29T08:00:22;100478.28;;;18.06;100.00
50430;BME280;36359;41.556;-8.418;2023-04-29T08:02:52;100473.84;;;18.26;100.00
50430;BME280;36359;41.556;-8.418;2023-04-29T08:05:18;100477.63;;;18.47;100.00
50430;BME280;36359;41.556;-8.418;2023-04-29T08:07:46;100473.00;;;18.47;100.00
50430;BME280;36359;41.556;-8.418;2023-04-29T08:10:13;100482.19;;;18.61;99.22
50430;BME280;36359;41.556;-8.418;2023-04-29T08:12:39;100484.44;;;18.51;100.00
50430;BME280;36359;41.556;-8.418;2023-04-29T08:15:07;100482.13;;;18.76;98.38
50430;BME280;36359;41.556;-8.418;2023-04-29T08:17:32;100486.41;;;18.85;98.13
50430;BME280;36359;41.556;-8.418;2023-04-29T08:19:58;100482.31;;;18.53;99.86
50430;BME280;36359;41.556;-8.418;2023-04-29T08:22:24;100478.00;;;18.44;100.00
50430;BME280;36359;41.556;-8.418;2023-04-29T08:24:49;100474.34;;;18.58;100.00
50430;BME280;36359;41.556;-8.418;2023-04-29T08:27:15;100477.19;;;18.93;97.44
50430;BME280;36359;41.556;-8.418;2023-04-29T08:29:41;100479.41;;;18.11;100.00
50430;BME280;36359;41.556;-8.418;2023-04-29T08:32:07;100472.06;;;18.40;100.00
50430;BME280;36359;41.556;-8.418;2023-04-29T08:34:33;100473.31;;;18.87;97.72
50430;BME280;36359;41.556;-8.418;2023-04-29T08:37:01;100481.50;;;18.74;98.39
50430;BME280;36359;41.556;-8.418;2023-04-29T08:39:28;100479.28;;;18.69;99.53
50430;BME280;36359;41.556;-8.418;2023-04-29T08:41:56;100482.28;;;18.96;97.23
50430;BME280;36359;41.556;-8.418;2023-04-29T08:44:21;100481.78;;;19.20;96.19
50430;BME280;36359;41.556;-8.418;2023-04-29T08:46:48;100486.84;;;19.58;92.89
50430;BME280;36359;41.556;-8.418;2023-04-29T08:49:14;100489.00;;;19.63;93.49
50430;BME280;36359;41.556;-8.418;2023-04-29T08:51:40;100479.81;;;19.90;90.89
50430;BME280;36359;41.556;-8.418;2023-04-29T08:54:05;100481.16;;;19.60;92.63
50430;BME280;36359;41.556;-8.418;2023-04-29T08:56:32;100479.13;;;19.82;90.85
50430;BME280;36359;41.556;-8.418;2023-04-29T08:59:00;100477.06;;;19.97;89.65
50430;BME280;36359;41.556;-8.418;2023-04-29T09:01:27;100482.44;;;20.32;86.81
50430;BME280;36359;41.556;-8.418;2023-04-29T09:04:08;100483.13;;;20.54;86.98
50430;BME280;36359;41.556;-8.418;2023-04-29T09:06:36;100480.38;;;20.60;84.91
50430;BME280;36359;41.556;-8.418;2023-04-29T09:09:02;100480.16;;;20.55;85.96
50430;BME280;36359;41.556;-8.418;2023-04-29T09:11:29;100481.22;;;20.54;86.09
50430;BME280;36359;41.556;-8.418;2023-04-29T09:13:59;100481.81;;;20.50;88.06
50430;BME280;36359;41.556;-8.418;2023-04-29T09:16:27;100487.13;;;20.64;85.05
50430;BME280;36359;41.556;-8.418;2023-04-29T09:18:53;100486.28;;;20.91;83.38
50430;BME280;36359;41.556;-8.418;2023-04-29T09:21:24;100490.13;;;20.90;85.50
50430;BME280;36359;41.556;-8.418;2023-04-29T09:23:56;100494.78;;;20.96;83.70
50430;BME280;36359;41.556;-8.418;2023-04-29T09:26:23;100492.88;;;20.90;83.65
50430;BME280;36359;41.556;-8.418;2023-04-29T09:29:09;100482.47;;;20.38;85.66
50430;BME280;36359;41.556;-8.418;2023-04-29T09:31:43;100492.44;;;20.73;84.75
50430;BME280;36359;41.556;-8.418;2023-04-29T09:34:10;100490.09;;;20.96;82.49
50430;BME280;36359;41.556;-8.418;2023-04-29T09:36:49;100493.47;;;21.12;81.60
50430;BME280;36359;41.556;-8.418;2023-04-29T09:39:17;100495.78;;;21.15;81.12
50430;BME280;36359;41.556;-8.418;2023-04-29T09:44:19;100485.00;;;21.00;82.72
50430;BME280;36359;41.556;-8.418;2023-04-29T09:47:00;100494.09;;;21.14;82.59
50430;BME280;36359;41.556;-8.418;2023-04-29T09:49:30;100486.63;;;21.34;81.57
50430;BME280;36359;41.556;-8.418;2023-04-29T09:51:58;100486.63;;;21.47;80.84
50430;BME280;36359;41.556;-8.418;2023-04-29T09:54:27;100494.31;;;21.19;82.34
50430;BME280;36359;41.556;-8.418;2023-04-29T09:56:54;100499.84;;;21.12;81.96
50430;BME280;36359;41.556;-8.418;2023-04-29T09:59:21;100492.25;;;20.74;83.25
50430;BME280;36359;41.556;-8.418;2023-04-29T10:01:53;100502.00;;;20.63;83.30
50430;BME280;36359;41.556;-8.418;2023-04-29T10:04:22;100489.69;;;20.86;83.93
50430;BME280;36359;41.556;-8.418;2023-04-29T10:06:50;100497.28;;;21.10;81.63
50430;BME280;36359;41.556;-8.418;2023-04-29T10:09:18;100499.19;;;21.30;80.57
50430;BME280;36359;41.556;-8.418;2023-04-29T10:11:45;100492.16;;;21.41;79.64
50430;BME280;36359;41.556;-8.418;2023-04-29T10:14:14;100495.94;;;21.53;77.74
50430;BME280;36359;41.556;-8.418;2023-04-29T10:19:11;100494.50;;;21.37;81.44
50430;BME280;36359;41.556;-8.418;2023-04-29T10:21:40;100495.00;;;20.94;83.10
50430;BME280;36359;41.556;-8.418;2023-04-29T10:24:06;100486.00;;;21.45;82.36
50430;BME280;36359;41.556;-8.418;2023-04-29T10:26:36;100489.44;;;21.79;81.71
50430;BME280;36359;41.556;-8.418;2023-04-29T10:29:04;100488.47;;;22.05;80.95
50430;BME280;36359;41.556;-8.418;2023-04-29T10:31:31;100489.84;;;22.28;76.13
50430;BME280;36359;41.556;-8.418;2023-04-29T10:33:59;100490.06;;;22.26;77.58
50430;BME280;36359;41.556;-8.418;2023-04-29T10:36:27;100497.66;;;22.37;75.92
50430;BME280;36359;41.556;-8.418;2023-04-29T10:38:57;100487.09;;;22.53;75.62
50430;BME280;36359;41.556;-8.418;2023-04-29T10:41:30;100487.59;;;22.18;77.07
50430;BME280;36359;41.556;-8.418;2023-04-29T10:43:58;100493.78;;;21.62;78.34
50430;BME280;36359;41.556;-8.418;2023-04-29T10:46:25;100497.25;;;21.44;79.35
50430;BME280;36359;41.556;-8.418;2023-04-29T10:49:02;100490.16;;;21.68;78.89
50430;BME280;36359;41.556;-8.418;2023-04-29T10:51:30;100489.69;;;21.77;78.45
50430;BME280;36359;41.556;-8.418;2023-04-29T10:54:16;100493.00;;;21.41;79.58
50430;BME280;36359;41.556;-8.418;2023-04-29T10:59:13;100494.38;;;21.70;80.13
50430;BME280;36359;41.556;-8.418;2023-04-29T11:04:07;100494.16;;;21.72;79.16
50430;BME280;36359;41.556;-8.418;2023-04-29T11:09:07;100507.22;;;21.96;77.99
50430;BME280;36359;41.556;-8.418;2023-04-29T11:12:00;100505.31;;;21.45;83.39
50430;BME280;36359;41.556;-8.418;2023-04-29T11:14:35;100499.69;;;21.72;80.92
50430;BME280;36359;41.556;-8.418;2023-04-29T11:17:03;100501.44;;;21.60;80.92
50430;BME280;36359;41.556;-8.418;2023-04-29T11:19:33;100510.81;;;21.97;78.13
50430;BME280;36359;41.556;-8.418;2023-04-29T11:22:13;100501.25;;;21.54;79.67
50430;BME280;36359;41.556;-8.418;2023-04-29T11:25:06;100507.59;;;22.07;80.79
50430;BME280;36359;41.556;-8.418;2023-04-29T11:27:35;100508.03;;;22.04;78.42
50430;BME280;36359;41.556;-8.418;2023-04-29T11:30:02;100508.41;;;22.14;79.29
50430;BME280;36359;41.556;-8.418;2023-04-29T11:32:34;100511.81;;;22.16;81.67
50430;BME280;36359;41.556;-8.418;2023-04-29T11:35:14;100512.44;;;22.11;81.33
50430;BME280;36359;41.556;-8.418;2023-04-29T11:37:42;100522.34;;;21.16;88.46
50430;BME280;36359;41.556;-8.418;2023-04-29T11:40:08;100522.34;;;20.76;90.89
50430;BME280;36359;41.556;-8.418;2023-04-29T11:42:39;100526.16;;;21.01;88.31
50430;BME280;36359;41.556;-8.418;2023-04-29T11:45:05;100518.72;;;21.22;87.79
50430;BME280;36359;41.556;-8.418;2023-04-29T11:47:31;100528.88;;;21.28;85.79
50430;BME280;36359;41.556;-8.418;2023-04-29T11:50:07;100518.53;;;20.90;91.10
50430;BME280;36359;41.556;-8.418;2023-04-29T11:52:36;100528.72;;;21.09;90.17
50430;BME280;36359;41.556;-8.418;2023-04-29T11:55:04;100527.44;;;21.12;88.62
50430;BME280;36359;41.556;-8.418;2023-04-29T11:57:30;100526.16;;;21.21;87.82
50430;BME280;36359;41.556;-8.418;2023-04-29T11:59:57;100527.81;;;21.29;87.08
50430;BME280;36359;41.556;-8.418;2023-04-29T12:02:29;100524.41;;;21.33;87.04
50430;BME280;36359;41.556;-8.418;2023-04-29T12:04:55;100518.06;;;21.33;86.84
50430;BME280;36359;41.556;-8.418;2023-04-29T12:07:22;100520.19;;;21.31;88.64
50430;BME280;36359;41.556;-8.418;2023-04-29T12:09:54;100514.00;;;21.29;88.12
50430;BME280;36359;41.556;-8.418;2023-04-29T12:12:21;100524.00;;;21.30;85.77
50430;BME280;36359;41.556;-8.418;2023-04-29T12:14:48;100517.63;;;21.43;85.58
50430;BME280;36359;41.556;-8.418;2023-04-29T12:17:14;100517.63;;;21.43;86.31
50430;BME280;36359;41.556;-8.418;2023-04-29T12:19:42;100521.47;;;21.42;88.12
50430;BME280;36359;41.556;-8.418;2023-04-29T12:22:08;100520.81;;;21.46;87.29
50430;BME280;36359;41.556;-8.418;2023-04-29T12:24:38;100524.66;;;21.39;85.68
50430;BME280;36359;41.556;-8.418;2023-04-29T12:27:07;100530.38;;;21.30;88.43
50430;BME280;36359;41.556;-8.418;2023-04-29T12:29:37;100529.94;;;21.20;89.35
50430;BME280;36359;41.556;-8.418;2023-04-29T12:32:05;100534.19;;;21.29;89.96
50430;BME280;36359;41.556;-8.418;2023-04-29T12:34:31;100531.22;;;21.31;88.97
50430;BME280;36359;41.556;-8.418;2023-04-29T12:37:00;100540.56;;;21.30;89.63
50430;BME280;36359;41.556;-8.418;2023-04-29T12:39:27;100532.97;;;21.12;87.33
50430;BME280;36359;41.556;-8.418;2023-04-29T12:42:00;100534.41;;;21.28;89.17
50430;BME280;36359;41.556;-8.418;2023-04-29T12:44:37;100536.34;;;21.21;90.63
50430;BME280;36359;41.556;-8.418;2023-04-29T12:47:10;100542.28;;;21.11;93.04
50430;BME280;36359;41.556;-8.418;2023-04-29T12:49:36;100543.13;;;20.58;100.00
50430;BME280;36359;41.556;-8.418;2023-04-29T12:52:03;100531.47;;;20.63;100.00
50430;BME280;36359;41.556;-8.418;2023-04-29T12:54:29;100530.75;;;20.28;98.41
50430;BME280;36359;41.556;-8.418;2023-04-29T12:56:55;100531.22;;;20.45;100.00
50430;BME280;36359;41.556;-8.418;2023-04-29T12:59:21;100535.78;;;20.04;100.00
50430;BME280;36359;41.556;-8.418;2023-04-29T13:01:47;100540.50;;;20.24;98.47
50430;BME280;36359;41.556;-8.418;2023-04-29T13:04:13;100547.88;;;20.03;100.00
50430;BME280;36359;41.556;-8.418;2023-04-29T13:06:38;100536.44;;;20.13;100.00
50430;BME280;36359;41.556;-8.418;2023-04-29T13:09:06;100535.44;;;20.34;100.00
50430;BME280;36359;41.556;-8.418;2023-04-29T13:11:31;100538.22;;;20.47;100.00
50430;BME280;36359;41.556;-8.418;2023-04-29T13:13:57;100533.47;;;20.14;100.00